sensor_id;sensor_type;location;lat;lon;timestamp;temperature;humidity
3790;DHT22;1910;49.042;9.028;2022-08-19T00:02:25;20.60;99.90
3790;DHT22;1910;49.042;9.028;2022-08-19T00:04:50;20.60;99.90
3790;DHT22;1910;49.042;9.028;2022-08-19T00:07:18;20.60;99.90
3790;DHT22;1910;49.042;9.028;2022-08-19T00:09:44;20.70;99.90
3790;DHT22;1910;49.042;9.028;2022-08-19T00:12:10;20.70;99.90
3790;DHT22;1910;49.042;9.028;2022-08-19T00:14:36;20.70;99.90
3790;DHT22;1910;49.042;9.028;2022-08-19T00:17:04;20.70;99.90
3790;DHT22;1910;49.042;9.028;2022-08-19T00:19:30;20.70;99.90
3790;DHT22;1910;49.042;9.028;2022-08-19T00:21:56;20.60;99.90
3790;DHT22;1910;49.042;9.028;2022-08-19T00:24:22;20.70;99.90
3790;DHT22;1910;49.042;9.028;2022-08-19T00:26:48;20.60;99.90
3790;DHT22;1910;49.042;9.028;2022-08-19T00:29:16;20.60;99.90
3790;DHT22;1910;49.042;9.028;2022-08-19T00:31:43;20.60;99.90
3790;DHT22;1910;49.042;9.028;2022-08-19T00:34:09;20.60;99.90
3790;DHT22;1910;49.042;9.028;2022-08-19T00:36:36;20.60;99.90
3790;DHT22;1910;49.042;9.028;2022-08-19T00:39:03;20.60;99.90
3790;DHT22;1910;49.042;9.028;2022-08-19T00:41:29;20.60;99.90
3790;DHT22;1910;49.042;9.028;2022-08-19T00:44:10;20.60;99.90
3790;DHT22;1910;49.042;9.028;2022-08-19T00:46:38;20.60;99.90
3790;DHT22;1910;49.042;9.028;2022-08-19T00:49:19;20.60;99.90
3790;DHT22;1910;49.042;9.028;2022-08-19T00:51:50;20.60;99.90
3790;DHT22;1910;49.042;9.028;2022-08-19T00:54:17;20.50;99.90
3790;DHT22;1910;49.042;9.028;2022-08-19T00:56:43;20.40;99.90
3790;DHT22;1910;49.042;9.028;2022-08-19T00:59:10;20.40;99.90
3790;DHT22;1910;49.042;9.028;2022-08-19T01:01:40;20.40;99.90
3790;DHT22;1910;49.042;9.028;2022-08-19T01:04:07;20.40;99.90
3790;DHT22;1910;49.042;9.028;2022-08-19T01:06:33;20.30;99.90
3790;DHT22;1910;49.042;9.028;2022-08-19T01:09:00;20.30;99.90
3790;DHT22;1910;49.042;9.028;2022-08-19T01:11:27;20.30;99.90
3790;DHT22;1910;49.042;9.028;2022-08-19T01:13:54;20.30;99.90
3790;DHT22;1910;49.042;9.028;2022-08-19T01:16:22;20.30;99.90
3790;DHT22;1910;49.042;9.028;2022-08-19T01:18:49;20.30;99.90
3790;DHT22;1910;49.042;9.028;2022-08-19T01:21:32;20.30;99.90
3790;DHT22;1910;49.042;9.028;2022-08-19T01:23:59;20.30;99.90
3790;DHT22;1910;49.042;9.028;2022-08-19T01:26:26;20.30;99.90
3790;DHT22;1910;49.042;9.028;2022-08-19T01:28:55;20.30;99.90
3790;DHT22;1910;49.042;9.028;2022-08-19T01:31:24;20.30;99.90
3790;DHT22;1910;49.042;9.028;2022-08-19T01:33:53;20.30;99.90
3790;DHT22;1910;49.042;9.028;2022-08-19T01:36:29;20.30;99.90
3790;DHT22;1910;49.042;9.028;2022-08-19T01:38:56;20.30;99.90
3790;DHT22;1910;49.042;9.028;2022-08-19T01:41:22;20.30;99.90
3790;DHT22;1910;49.042;9.028;2022-08-19T01:43:49;20.30;99.90
3790;DHT22;1910;49.042;9.028;2022-08-19T01:46:16;20.30;99.90
3790;DHT22;1910;49.042;9.028;2022-08-19T01:48:43;20.30;99.90
3790;DHT22;1910;49.042;9.028;2022-08-19T01:51:10;20.20;99.90
3790;DHT22;1910;49.042;9.028;2022-08-19T01:53:36;20.20;99.90
3790;DHT22;1910;49.042;9.028;2022-08-19T01:56:02;20.20;99.90
3790;DHT22;1910;49.042;9.028;2022-08-19T01:58:32;20.10;99.90
3790;DHT22;1910;49.042;9.028;2022-08-19T02:01:01;20.10;99.90
3790;DHT22;1910;49.042;9.028;2022-08-19T02:03:27;20.00;99.90
3790;DHT22;1910;49.042;9.028;2022-08-19T02:06:00;20.00;99.90
3790;DHT22;1910;49.042;9.028;2022-08-19T02:08:31;20.00;99.90
3790;DHT22;1910;49.042;9.028;2022-08-19T02:10:56;19.90;99.90
3790;DHT22;1910;49.042;9.028;2022-08-19T02:13:23;20.00;99.90
3790;DHT22;1910;49.042;9.028;2022-08-19T02:15:49;19.90;99.90
3790;DHT22;1910;49.042;9.028;2022-08-19T02:18:15;19.90;99.90
3790;DHT22;1910;49.042;9.028;2022-08-19T02:20:41;19.80;99.90
3790;DHT22;1910;49.042;9.028;2022-08-19T02:23:07;19.80;99.90
3790;DHT22;1910;49.042;9.028;2022-08-19T02:25:33;19.80;99.90
3790;DHT22;1910;49.042;9.028;2022-08-19T02:27:59;19.80;99.90
3790;DHT22;1910;49.042;9.028;2022-08-19T02:30:24;19.70;99.90
3790;DHT22;1910;49.042;9.028;2022-08-19T02:32:51;19.70;99.90
3790;DHT22;1910;49.042;9.028;2022-08-19T02:35:17;19.60;99.90
3790;DHT22;1910;49.042;9.028;2022-08-19T02:37:43;19.60;99.90
3790;DHT22;1910;49.042;9.028;2022-08-19T02:40:28;19.60;99.90
3790;DHT22;1910;49.042;9.028;2022-08-19T02:42:53;19.60;99.90
3790;DHT22;1910;49.042;9.028;2022-08-19T02:45:19;19.50;99.90
3790;DHT22;1910;49.042;9.028;2022-08-19T02:47:45;19.50;99.90
3790;DHT22;1910;49.042;9.028;2022-08-19T02:50:11;19.50;99.90
3790;DHT22;1910;49.042;9.028;2022-08-19T02:52:36;19.50;99.90
3790;DHT22;1910;49.042;9.028;2022-08-19T02:55:03;19.50;99.90
3790;DHT22;1910;49.042;9.028;2022-08-19T02:57:30;19.50;99.90
3790;DHT22;1910;49.042;9.028;2022-08-19T02:59:56;19.50;99.90
3790;DHT22;1910;49.042;9.028;2022-08-19T03:02:22;19.40;99.90
3790;DHT22;1910;49.042;9.028;2022-08-19T03:04:48;19.40;99.90
3790;DHT22;1910;49.042;9.028;2022-08-19T03:07:14;19.40;99.90
3790;DHT22;1910;49.042;9.028;2022-08-19T03:09:40;19.40;99.90
3790;DHT22;1910;49.042;9.028;2022-08-19T03:12:05;19.40;99.90
3790;DHT22;1910;49.042;9.028;2022-08-19T03:14:34;19.40;99.90
3790;DHT22;1910;49.042;9.028;2022-08-19T03:17:01;19.40;99.90
3790;DHT22;1910;49.042;9.028;2022-08-19T03:19:27;19.30;99.90
3790;DHT22;1910;49.042;9.028;2022-08-19T03:21:53;19.30;99.90
3790;DHT22;1910;49.042;9.028;2022-08-19T03:24:20;19.30;99.90
3790;DHT22;1910;49.042;9.028;2022-08-19T03:26:49;19.20;99.90
3790;DHT22;1910;49.042;9.028;2022-08-19T03:29:16;19.20;99.90
3790;DHT22;1910;49.042;9.028;2022-08-19T03:31:43;19.20;99.90
3790;DHT22;1910;49.042;9.028;2022-08-19T03:34:13;19.20;99.90
3790;DHT22;1910;49.042;9.028;2022-08-19T03:36:39;19.20;99.90
3790;DHT22;1910;49.042;9.028;2022-08-19T03:39:05;19.20;99.90
3790;DHT22;1910;49.042;9.028;2022-08-19T03:41:37;19.20;99.90
3790;DHT22;1910;49.042;9.028;2022-08-19T03:44:03;19.20;99.90
3790;DHT22;1910;49.042;9.028;2022-08-19T03:46:31;19.20;99.90
3790;DHT22;1910;49.042;9.028;2022-08-19T03:48:59;19.20;99.90
3790;DHT22;1910;49.042;9.028;2022-08-19T03:51:31;19.20;99.90
3790;DHT22;1910;49.042;9.028;2022-08-19T03:53:59;19.20;99.90
3790;DHT22;1910;49.042;9.028;2022-08-19T03:56:26;19.10;99.90
3790;DHT22;1910;49.042;9.028;2022-08-19T03:58:57;19.10;99.90
3790;DHT22;1910;49.042;9.028;2022-08-19T04:01:25;19.10;99.90
3790;DHT22;1910;49.042;9.028;2022-08-19T04:03:55;19.20;99.90
3790;DHT22;1910;49.042;9.028;2022-08-19T04:06:27;19.10;99.90
3790;DHT22;1910;49.042;9.028;2022-08-19T04:08:54;19.20;99.90
3790;DHT22;1910;49.042;9.028;2022-08-19T04:11:24;19.10;99.90
3790;DHT22;1910;49.042;9.028;2022-08-19T04:13:51;19.20;99.90
3790;DHT22;1910;49.042;9.028;2022-08-19T04:16:18;19.20;99.90
3790;DHT22;1910;49.042;9.028;2022-08-19T04:18:45;19.20;99.90
3790;DHT22;1910;49.042;9.028;2022-08-19T04:21:19;19.20;99.90
3790;DHT22;1910;49.042;9.028;2022-08-19T04:23:45;19.20;99.90
3790;DHT22;1910;49.042;9.028;2022-08-19T04:26:16;19.20;99.90
3790;DHT22;1910;49.042;9.028;2022-08-19T04:28:44;19.20;99.90
3790;DHT22;1910;49.042;9.028;2022-08-19T04:31:14;19.20;99.90
3790;DHT22;1910;49.042;9.028;2022-08-19T04:33:41;19.20;99.90
3790;DHT22;1910;49.042;9.028;2022-08-19T04:36:06;19.20;99.90
3790;DHT22;1910;49.042;9.028;2022-08-19T04:38:33;19.20;99.90
3790;DHT22;1910;49.042;9.028;2022-08-19T04:40:58;19.20;99.90
3790;DHT22;1910;49.042;9.028;2022-08-19T04:43:44;19.20;99.90
3790;DHT22;1910;49.042;9.028;2022-08-19T04:46:14;19.20;99.90
3790;DHT22;1910;49.042;9.028;2022-08-19T04:48:41;19.20;99.90
3790;DHT22;1910;49.042;9.028;2022-08-19T04:51:09;19.20;99.90
3790;DHT22;1910;49.042;9.028;2022-08-19T04:53:36;19.30;99.90
3790;DHT22;1910;49.042;9.028;2022-08-19T04:56:11;19.20;99.90
3790;DHT22;1910;49.042;9.028;2022-08-19T04:58:37;19.20;99.90
3790;DHT22;1910;49.042;9.028;2022-08-19T05:01:03;19.30;99.90
3790;DHT22;1910;49.042;9.028;2022-08-19T05:03:29;19.20;99.90
3790;DHT22;1910;49.042;9.028;2022-08-19T05:06:09;19.20;99.90
3790;DHT22;1910;49.042;9.028;2022-08-19T05:08:37;19.20;99.90
3790;DHT22;1910;49.042;9.028;2022-08-19T05:11:11;19.20;99.90
3790;DHT22;1910;49.042;9.028;2022-08-19T05:13:37;19.20;99.90
3790;DHT22;1910;49.042;9.028;2022-08-19T05:16:03;19.20;99.90
3790;DHT22;1910;49.042;9.028;2022-08-19T05:18:28;19.20;99.90
3790;DHT22;1910;49.042;9.028;2022-08-19T05:21:15;19.20;99.90
3790;DHT22;1910;49.042;9.028;2022-08-19T05:24:00;18.80;99.90
3790;DHT22;1910;49.042;9.028;2022-08-19T05:26:26;19.30;99.90
3790;DHT22;1910;49.042;9.028;2022-08-19T05:28:54;19.30;99.90
3790;DHT22;1910;49.042;9.028;2022-08-19T05:31:20;19.30;99.90
3790;DHT22;1910;49.042;9.028;2022-08-19T05:33:47;19.30;99.90
3790;DHT22;1910;49.042;9.028;2022-08-19T05:36:12;19.30;99.90
3790;DHT22;1910;49.042;9.028;2022-08-19T05:38:39;19.30;99.90
3790;DHT22;1910;49.042;9.028;2022-08-19T05:41:09;19.30;99.90
3790;DHT22;1910;49.042;9.028;2022-08-19T05:43:35;19.30;99.90
3790;DHT22;1910;49.042;9.028;2022-08-19T05:46:01;19.30;99.90
3790;DHT22;1910;49.042;9.028;2022-08-19T05:48:27;19.40;99.90
3790;DHT22;1910;49.042;9.028;2022-08-19T05:50:53;19.40;99.90
3790;DHT22;1910;49.042;9.028;2022-08-19T05:53:19;19.30;99.90
3790;DHT22;1910;49.042;9.028;2022-08-19T05:55:45;19.40;99.90
3790;DHT22;1910;49.042;9.028;2022-08-19T05:58:10;19.30;99.90
3790;DHT22;1910;49.042;9.028;2022-08-19T06:00:37;19.30;99.90
3790;DHT22;1910;49.042;9.028;2022-08-19T06:03:03;19.30;99.90
3790;DHT22;1910;49.042;9.028;2022-08-19T06:05:30;19.30;99.90
3790;DHT22;1910;49.042;9.028;2022-08-19T06:07:56;19.40;99.90
3790;DHT22;1910;49.042;9.028;2022-08-19T06:10:21;19.40;99.90
3790;DHT22;1910;49.042;9.028;2022-08-19T06:12:48;19.40;99.90
3790;DHT22;1910;49.042;9.028;2022-08-19T06:15:13;19.50;99.90
3790;DHT22;1910;49.042;9.028;2022-08-19T06:17:39;19.50;99.90
3790;DHT22;1910;49.042;9.028;2022-08-19T06:20:09;19.50;99.90
3790;DHT22;1910;49.042;9.028;2022-08-19T06:22:47;19.50;99.90
3790;DHT22;1910;49.042;9.028;2022-08-19T06:25:15;19.50;99.90
3790;DHT22;1910;49.042;9.028;2022-08-19T06:27:41;19.50;99.90
3790;DHT22;1910;49.042;9.028;2022-08-19T06:30:07;19.50;99.90
3790;DHT22;1910;49.042;9.028;2022-08-19T06:32:33;19.50;99.90
3790;DHT22;1910;49.042;9.028;2022-08-19T06:34:58;19.50;99.90
3790;DHT22;1910;49.042;9.028;2022-08-19T06:37:24;19.50;99.90
3790;DHT22;1910;49.042;9.028;2022-08-19T06:39:50;19.50;99.90
3790;DHT22;1910;49.042;9.028;2022-08-19T06:42:15;19.50;99.90
3790;DHT22;1910;49.042;9.028;2022-08-19T06:44:44;19.50;99.90
3790;DHT22;1910;49.042;9.028;2022-08-19T06:47:14;19.50;99.90
3790;DHT22;1910;49.042;9.028;2022-08-19T06:49:40;19.60;99.90
3790;DHT22;1910;49.042;9.028;2022-08-19T06:52:06;19.60;99.90
3790;DHT22;1910;49.042;9.028;2022-08-19T06:54:32;19.60;99.90
3790;DHT22;1910;49.042;9.028;2022-08-19T06:56:59;19.60;99.90
3790;DHT22;1910;49.042;9.028;2022-08-19T06:59:28;19.70;99.90
3790;DHT22;1910;49.042;9.028;2022-08-19T07:01:56;19.70;99.90
3790;DHT22;1910;49.042;9.028;2022-08-19T07:04:24;19.70;99.90
3790;DHT22;1910;49.042;9.028;2022-08-19T07:06:57;19.90;99.90
3790;DHT22;1910;49.042;9.028;2022-08-19T07:09:23;20.10;99.90
3790;DHT22;1910;49.042;9.028;2022-08-19T07:11:50;20.10;99.90
3790;DHT22;1910;49.042;9.028;2022-08-19T07:14:19;20.20;99.90
3790;DHT22;1910;49.042;9.028;2022-08-19T07:16:47;20.20;99.90
3790;DHT22;1910;49.042;9.028;2022-08-19T07:19:13;20.30;99.90
3790;DHT22;1910;49.042;9.028;2022-08-19T07:21:40;20.30;99.90
3790;DHT22;1910;49.042;9.028;2022-08-19T07:24:06;20.40;99.90
3790;DHT22;1910;49.042;9.028;2022-08-19T07:26:33;20.40;99.90
3790;DHT22;1910;49.042;9.028;2022-08-19T07:29:04;20.50;99.90
3790;DHT22;1910;49.042;9.028;2022-08-19T07:31:30;20.70;99.90
3790;DHT22;1910;49.042;9.028;2022-08-19T07:33:56;20.90;99.90
3790;DHT22;1910;49.042;9.028;2022-08-19T07:36:24;20.90;99.90
3790;DHT22;1910;49.042;9.028;2022-08-19T07:38:51;21.20;99.90
3790;DHT22;1910;49.042;9.028;2022-08-19T07:41:20;21.70;99.90
3790;DHT22;1910;49.042;9.028;2022-08-19T07:43:47;21.90;99.90
3790;DHT22;1910;49.042;9.028;2022-08-19T07:46:13;22.10;99.90
3790;DHT22;1910;49.042;9.028;2022-08-19T07:48:40;22.10;99.90
3790;DHT22;1910;49.042;9.028;2022-08-19T07:51:07;22.30;99.90
3790;DHT22;1910;49.042;9.028;2022-08-19T07:53:35;22.60;99.90
3790;DHT22;1910;49.042;9.028;2022-08-19T07:56:01;22.30;99.90
3790;DHT22;1910;49.042;9.028;2022-08-19T07:58:28;22.50;99.90
3790;DHT22;1910;49.042;9.028;2022-08-19T08:00:53;22.60;99.90
3790;DHT22;1910;49.042;9.028;2022-08-19T08:03:21;22.60;99.90
3790;DHT22;1910;49.042;9.028;2022-08-19T08:06:07;22.50;99.90
3790;DHT22;1910;49.042;9.028;2022-08-19T08:08:51;22.50;99.90
3790;DHT22;1910;49.042;9.028;2022-08-19T08:11:35;22.40;99.90
3790;DHT22;1910;49.042;9.028;2022-08-19T08:14:01;22.50;99.90
3790;DHT22;1910;49.042;9.028;2022-08-19T08:16:27;22.30;99.90
3790;DHT22;1910;49.042;9.028;2022-08-19T08:18:55;22.50;99.90
3790;DHT22;1910;49.042;9.028;2022-08-19T08:21:20;22.70;99.90
3790;DHT22;1910;49.042;9.028;2022-08-19T08:23:46;22.70;99.90
3790;DHT22;1910;49.042;9.028;2022-08-19T08:26:11;22.40;99.90
3790;DHT22;1910;49.042;9.028;2022-08-19T08:28:38;22.40;99.90
3790;DHT22;1910;49.042;9.028;2022-08-19T08:31:03;22.40;99.90
3790;DHT22;1910;49.042;9.028;2022-08-19T08:33:29;22.30;99.90
3790;DHT22;1910;49.042;9.028;2022-08-19T08:35:55;22.20;99.90
3790;DHT22;1910;49.042;9.028;2022-08-19T08:38:21;22.30;99.90
3790;DHT22;1910;49.042;9.028;2022-08-19T08:40:50;22.10;99.90
3790;DHT22;1910;49.042;9.028;2022-08-19T08:43:31;22.10;99.90
3790;DHT22;1910;49.042;9.028;2022-08-19T08:46:11;22.20;99.90
3790;DHT22;1910;49.042;9.028;2022-08-19T08:48:44;22.40;99.90
3790;DHT22;1910;49.042;9.028;2022-08-19T08:51:26;22.40;99.90
3790;DHT22;1910;49.042;9.028;2022-08-19T08:53:54;22.50;99.90
3790;DHT22;1910;49.042;9.028;2022-08-19T08:56:21;22.60;99.90
3790;DHT22;1910;49.042;9.028;2022-08-19T08:58:57;22.70;99.90
3790;DHT22;1910;49.042;9.028;2022-08-19T09:01:23;22.60;99.90
3790;DHT22;1910;49.042;9.028;2022-08-19T09:03:49;22.70;99.90
3790;DHT22;1910;49.042;9.028;2022-08-19T09:06:36;22.80;99.90
3790;DHT22;1910;49.042;9.028;2022-08-19T09:09:17;22.80;99.90
3790;DHT22;1910;49.042;9.028;2022-08-19T09:12:10;22.80;99.90
3790;DHT22;1910;49.042;9.028;2022-08-19T09:17:11;23.30;99.90
3790;DHT22;1910;49.042;9.028;2022-08-19T09:19:52;23.70;99.90
3790;DHT22;1910;49.042;9.028;2022-08-19T09:22:19;23.90;99.90
3790;DHT22;1910;49.042;9.028;2022-08-19T09:24:50;24.20;99.90
3790;DHT22;1910;49.042;9.028;2022-08-19T09:27:18;24.40;99.90
3790;DHT22;1910;49.042;9.028;2022-08-19T09:29:43;24.30;99.90
3790;DHT22;1910;49.042;9.028;2022-08-19T09:32:09;24.20;99.90
3790;DHT22;1910;49.042;9.028;2022-08-19T09:34:34;24.20;99.90
3790;DHT22;1910;49.042;9.028;2022-08-19T09:37:00;24.00;99.90
3790;DHT22;1910;49.042;9.028;2022-08-19T09:39:26;24.00;99.90
3790;DHT22;1910;49.042;9.028;2022-08-19T09:41:52;23.90;99.90
3790;DHT22;1910;49.042;9.028;2022-08-19T09:44:18;24.00;99.90
3790;DHT22;1910;49.042;9.028;2022-08-19T09:46:45;24.00;99.90
3790;DHT22;1910;49.042;9.028;2022-08-19T09:49:12;24.20;99.90
3790;DHT22;1910;49.042;9.028;2022-08-19T09:51:37;24.10;99.90
3790;DHT22;1910;49.042;9.028;2022-08-19T09:54:04;24.00;99.90
3790;DHT22;1910;49.042;9.028;2022-08-19T09:56:30;24.10;99.90
3790;DHT22;1910;49.042;9.028;2022-08-19T09:58:58;24.30;99.90
3790;DHT22;1910;49.042;9.028;2022-08-19T10:01:27;24.20;99.90
3790;DHT22;1910;49.042;9.028;2022-08-19T10:03:55;24.20;99.90
3790;DHT22;1910;49.042;9.028;2022-08-19T10:06:23;24.20;99.90
3790;DHT22;1910;49.042;9.028;2022-08-19T10:08:49;24.20;99.90
3790;DHT22;1910;49.042;9.028;2022-08-19T10:11:15;24.10;99.90
3790;DHT22;1910;49.042;9.028;2022-08-19T10:13:43;24.30;99.90
3790;DHT22;1910;49.042;9.028;2022-08-19T10:16:14;24.50;99.90
3790;DHT22;1910;49.042;9.028;2022-08-19T10:18:41;24.60;99.90
3790;DHT22;1910;49.042;9.028;2022-08-19T10:23:44;24.70;99.90
3790;DHT22;1910;49.042;9.028;2022-08-19T10:26:15;24.80;99.90
3790;DHT22;1910;49.042;9.028;2022-08-19T10:28:41;24.80;99.90
3790;DHT22;1910;49.042;9.028;2022-08-19T10:31:13;24.70;99.90
3790;DHT22;1910;49.042;9.028;2022-08-19T10:33:40;24.50;99.90
3790;DHT22;1910;49.042;9.028;2022-08-19T10:36:09;24.30;99.90
3790;DHT22;1910;49.042;9.028;2022-08-19T10:38:36;24.40;99.90
3790;DHT22;1910;49.042;9.028;2022-08-19T10:41:16;24.60;99.90
3790;DHT22;1910;49.042;9.028;2022-08-19T10:43:42;24.80;99.90
3790;DHT22;1910;49.042;9.028;2022-08-19T10:46:12;24.80;99.90
3790;DHT22;1910;49.042;9.028;2022-08-19T10:48:39;24.90;99.90
3790;DHT22;1910;49.042;9.028;2022-08-19T10:51:05;25.00;99.90
3790;DHT22;1910;49.042;9.028;2022-08-19T10:53:50;25.30;99.90
3790;DHT22;1910;49.042;9.028;2022-08-19T10:56:15;25.80;99.90
3790;DHT22;1910;49.042;9.028;2022-08-19T10:59:00;26.20;99.90
3790;DHT22;1910;49.042;9.028;2022-08-19T11:01:29;26.60;99.90
3790;DHT22;1910;49.042;9.028;2022-08-19T11:03:56;26.90;99.90
3790;DHT22;1910;49.042;9.028;2022-08-19T11:06:23;26.70;99.90
3790;DHT22;1910;49.042;9.028;2022-08-19T11:08:50;26.80;99.90
3790;DHT22;1910;49.042;9.028;2022-08-19T11:11:16;26.80;99.90
3790;DHT22;1910;49.042;9.028;2022-08-19T11:13:43;27.00;99.90
3790;DHT22;1910;49.042;9.028;2022-08-19T11:16:13;27.30;99.90
3790;DHT22;1910;49.042;9.028;2022-08-19T11:18:42;27.30;99.90
3790;DHT22;1910;49.042;9.028;2022-08-19T11:21:15;27.60;99.90
3790;DHT22;1910;49.042;9.028;2022-08-19T11:23:46;27.50;99.90
3790;DHT22;1910;49.042;9.028;2022-08-19T11:26:12;27.30;99.90
3790;DHT22;1910;49.042;9.028;2022-08-19T11:28:38;26.50;99.90
3790;DHT22;1910;49.042;9.028;2022-08-19T11:31:09;26.20;99.90
3790;DHT22;1910;49.042;9.028;2022-08-19T11:33:34;25.80;99.90
3790;DHT22;1910;49.042;9.028;2022-08-19T11:36:00;25.30;99.90
3790;DHT22;1910;49.042;9.028;2022-08-19T11:38:26;25.10;99.90
3790;DHT22;1910;49.042;9.028;2022-08-19T11:40:57;25.10;99.90
3790;DHT22;1910;49.042;9.028;2022-08-19T11:43:23;25.30;99.90
3790;DHT22;1910;49.042;9.028;2022-08-19T11:45:49;25.60;99.90
3790;DHT22;1910;49.042;9.028;2022-08-19T11:48:15;26.20;99.90
3790;DHT22;1910;49.042;9.028;2022-08-19T11:50:41;26.90;99.90
3790;DHT22;1910;49.042;9.028;2022-08-19T11:53:08;27.00;99.90
3790;DHT22;1910;49.042;9.028;2022-08-19T11:55:38;27.30;99.90
3790;DHT22;1910;49.042;9.028;2022-08-19T11:58:04;27.20;99.90
3790;DHT22;1910;49.042;9.028;2022-08-19T12:00:32;27.20;99.90
3790;DHT22;1910;49.042;9.028;2022-08-19T12:02:59;26.80;99.90
3790;DHT22;1910;49.042;9.028;2022-08-19T12:05:24;26.60;99.90
3790;DHT22;1910;49.042;9.028;2022-08-19T12:07:50;26.70;99.90
3790;DHT22;1910;49.042;9.028;2022-08-19T12:10:15;26.50;99.90
3790;DHT22;1910;49.042;9.028;2022-08-19T12:12:41;26.10;99.90
3790;DHT22;1910;49.042;9.028;2022-08-19T12:15:08;25.80;99.90
3790;DHT22;1910;49.042;9.028;2022-08-19T12:17:37;25.60;99.90
3790;DHT22;1910;49.042;9.028;2022-08-19T12:20:03;25.30;99.90
3790;DHT22;1910;49.042;9.028;2022-08-19T12:22:30;25.30;99.90
3790;DHT22;1910;49.042;9.028;2022-08-19T12:24:55;24.90;99.90
3790;DHT22;1910;49.042;9.028;2022-08-19T12:27:21;24.60;99.90
3790;DHT22;1910;49.042;9.028;2022-08-19T12:29:46;24.70;99.90
3790;DHT22;1910;49.042;9.028;2022-08-19T12:32:12;24.80;99.90
3790;DHT22;1910;49.042;9.028;2022-08-19T12:34:38;25.10;99.90
3790;DHT22;1910;49.042;9.028;2022-08-19T12:37:05;25.40;99.90
3790;DHT22;1910;49.042;9.028;2022-08-19T12:39:35;26.40;99.90
3790;DHT22;1910;49.042;9.028;2022-08-19T12:42:01;26.50;99.90
3790;DHT22;1910;49.042;9.028;2022-08-19T12:44:27;27.00;99.90
3790;DHT22;1910;49.042;9.028;2022-08-19T12:46:52;27.40;99.90
3790;DHT22;1910;49.042;9.028;2022-08-19T12:49:18;28.20;99.90
3790;DHT22;1910;49.042;9.028;2022-08-19T12:51:43;28.20;99.90
3790;DHT22;1910;49.042;9.028;2022-08-19T12:54:09;28.10;99.90
3790;DHT22;1910;49.042;9.028;2022-08-19T12:56:36;27.70;99.90
3790;DHT22;1910;49.042;9.028;2022-08-19T12:59:03;27.40;99.90
3790;DHT22;1910;49.042;9.028;2022-08-19T13:01:29;26.90;99.90
3790;DHT22;1910;49.042;9.028;2022-08-19T13:03:58;26.70;99.90
3790;DHT22;1910;49.042;9.028;2022-08-19T13:06:23;26.50;99.90
3790;DHT22;1910;49.042;9.028;2022-08-19T13:08:49;26.40;99.90
3790;DHT22;1910;49.042;9.028;2022-08-19T13:11:17;26.30;99.90
3790;DHT22;1910;49.042;9.028;2022-08-19T13:13:45;26.10;99.90
3790;DHT22;1910;49.042;9.028;2022-08-19T13:16:12;25.90;99.90
3790;DHT22;1910;49.042;9.028;2022-08-19T13:18:39;25.80;99.90
3790;DHT22;1910;49.042;9.028;2022-08-19T13:21:06;25.70;99.90
3790;DHT22;1910;49.042;9.028;2022-08-19T13:23:34;25.80;99.90
3790;DHT22;1910;49.042;9.028;2022-08-19T13:26:05;25.90;99.90
3790;DHT22;1910;49.042;9.028;2022-08-19T13:28:32;26.00;99.90
3790;DHT22;1910;49.042;9.028;2022-08-19T13:31:18;26.10;99.90
3790;DHT22;1910;49.042;9.028;2022-08-19T13:34:02;26.40;99.90
3790;DHT22;1910;49.042;9.028;2022-08-19T13:36:28;26.50;99.90
3790;DHT22;1910;49.042;9.028;2022-08-19T13:38:53;26.90;99.90
3790;DHT22;1910;49.042;9.028;2022-08-19T13:41:19;27.10;99.60
3790;DHT22;1910;49.042;9.028;2022-08-19T13:43:45;27.30;98.50
3790;DHT22;1910;49.042;9.028;2022-08-19T13:46:11;27.40;98.30
3790;DHT22;1910;49.042;9.028;2022-08-19T13:48:40;27.60;98.40
3790;DHT22;1910;49.042;9.028;2022-08-19T13:51:07;27.70;97.60
3790;DHT22;1910;49.042;9.028;2022-08-19T13:53:36;27.50;96.80
3790;DHT22;1910;49.042;9.028;2022-08-19T13:56:05;27.60;96.70
3790;DHT22;1910;49.042;9.028;2022-08-19T13:58:31;27.20;96.30
3790;DHT22;1910;49.042;9.028;2022-08-19T14:00:57;27.10;96.30
3790;DHT22;1910;49.042;9.028;2022-08-19T14:03:25;27.00;96.00
3790;DHT22;1910;49.042;9.028;2022-08-19T14:05:50;26.90;96.70
3790;DHT22;1910;49.042;9.028;2022-08-19T14:08:16;26.80;96.80
3790;DHT22;1910;49.042;9.028;2022-08-19T14:10:42;26.80;96.90
3790;DHT22;1910;49.042;9.028;2022-08-19T14:13:10;26.80;96.70
3790;DHT22;1910;49.042;9.028;2022-08-19T14:15:35;26.90;96.70
3790;DHT22;1910;49.042;9.028;2022-08-19T14:18:02;27.00;96.20
3790;DHT22;1910;49.042;9.028;2022-08-19T14:20:29;27.00;95.50
3790;DHT22;1910;49.042;9.028;2022-08-19T14:22:55;27.20;94.30
3790;DHT22;1910;49.042;9.028;2022-08-19T14:25:26;27.00;94.30
3790;DHT22;1910;49.042;9.028;2022-08-19T14:27:52;26.90;93.50
3790;DHT22;1910;49.042;9.028;2022-08-19T14:30:21;26.90;93.30
3790;DHT22;1910;49.042;9.028;2022-08-19T14:32:47;27.20;93.00
3790;DHT22;1910;49.042;9.028;2022-08-19T14:35:14;27.40;92.00
3790;DHT22;1910;49.042;9.028;2022-08-19T14:37:43;27.70;91.80
3790;DHT22;1910;49.042;9.028;2022-08-19T14:40:10;27.80;91.20
3790;DHT22;1910;49.042;9.028;2022-08-19T14:42:36;27.80;90.80
3790;DHT22;1910;49.042;9.028;2022-08-19T14:45:02;27.40;90.80
3790;DHT22;1910;49.042;9.028;2022-08-19T14:47:30;27.60;91.10
3790;DHT22;1910;49.042;9.028;2022-08-19T14:49:56;27.50;89.50
3790;DHT22;1910;49.042;9.028;2022-08-19T14:52:21;27.60;89.80
3790;DHT22;1910;49.042;9.028;2022-08-19T14:54:47;27.60;89.20
3790;DHT22;1910;49.042;9.028;2022-08-19T14:57:14;27.40;88.10
3790;DHT22;1910;49.042;9.028;2022-08-19T14:59:42;27.30;89.10
3790;DHT22;1910;49.042;9.028;2022-08-19T15:02:07;27.30;90.20
3790;DHT22;1910;49.042;9.028;2022-08-19T15:04:33;27.40;90.20
3790;DHT22;1910;49.042;9.028;2022-08-19T15:06:58;27.50;90.00
3790;DHT22;1910;49.042;9.028;2022-08-19T15:09:23;27.30;85.80
3790;DHT22;1910;49.042;9.028;2022-08-19T15:11:49;27.30;86.30
3790;DHT22;1910;49.042;9.028;2022-08-19T15:14:15;27.10;86.70
3790;DHT22;1910;49.042;9.028;2022-08-19T15:16:42;26.90;87.80
3790;DHT22;1910;49.042;9.028;2022-08-19T15:19:07;26.90;87.00
3790;DHT22;1910;49.042;9.028;2022-08-19T15:21:33;26.80;85.70
3790;DHT22;1910;49.042;9.028;2022-08-19T15:23:59;26.80;85.70
3790;DHT22;1910;49.042;9.028;2022-08-19T15:26:26;26.70;84.60
3790;DHT22;1910;49.042;9.028;2022-08-19T15:28:56;26.70;83.60
3790;DHT22;1910;49.042;9.028;2022-08-19T15:31:22;26.70;82.50
3790;DHT22;1910;49.042;9.028;2022-08-19T15:33:48;26.70;82.00
3790;DHT22;1910;49.042;9.028;2022-08-19T15:36:14;26.70;81.70
3790;DHT22;1910;49.042;9.028;2022-08-19T15:38:41;26.70;82.30
3790;DHT22;1910;49.042;9.028;2022-08-19T15:41:17;26.70;81.20
3790;DHT22;1910;49.042;9.028;2022-08-19T15:43:51;26.60;81.60
3790;DHT22;1910;49.042;9.028;2022-08-19T15:46:20;26.70;82.10
3790;DHT22;1910;49.042;9.028;2022-08-19T15:48:50;26.60;81.70
3790;DHT22;1910;49.042;9.028;2022-08-19T15:51:16;26.70;81.70
3790;DHT22;1910;49.042;9.028;2022-08-19T15:53:42;26.70;81.70
3790;DHT22;1910;49.042;9.028;2022-08-19T15:56:08;26.50;81.30
3790;DHT22;1910;49.042;9.028;2022-08-19T15:58:34;26.50;81.70
3790;DHT22;1910;49.042;9.028;2022-08-19T16:01:18;26.40;81.60
3790;DHT22;1910;49.042;9.028;2022-08-19T16:04:02;26.50;82.10
3790;DHT22;1910;49.042;9.028;2022-08-19T16:06:50;26.50;81.70
3790;DHT22;1910;49.042;9.028;2022-08-19T16:09:17;26.60;81.30
3790;DHT22;1910;49.042;9.028;2022-08-19T16:11:44;26.50;81.90
3790;DHT22;1910;49.042;9.028;2022-08-19T16:14:12;26.60;82.50